TEGELER SEGEL-CLUB e.V.
125 Jahre TSC - Segeln seit 1901 im Norden Berlins
125 Jahre TSC tsc stander

Auf dieser Seite finden Sie die Wetterübersicht für ein bestimmtes Einzeldatum. Beim ersten Aufruf der Seite wird immer das aktuelle Datum angezeigt, danach kann jeder beliebige Tag ausgewählt werden (z.B. der 24. Dezember). Für diesen Tag wird dann das Wetter aller vergangenen Jahre für diesen Tag seit Beginn der Aufzeichnungen im TSC 2005 angezeigt (also der 24.12.2005, 24.12.2006, ...). Jahre ohne Wetteraufzeichnungen werden nicht angezeigt, fehlende einzelne Messwerte werden mit (---) dargestellt. Das Wetter wird anhand der Lufttemperatur (Minumum, Maximum, Tagesmittel), sowie der Tagesmittelwerte für die Wassertemperatur, die Windgeschwindigkeit und den Luftdruck dargestellt.

Ausgewälter Tag: 14.04.


Der wärmste 14.04. war im Jahr 2025 mit 15.6°C Durchschnittstemperatur.
Der kälteste 14.04. war im Jahr 2021 mit 4.8°C Durchschnittstemperatur.
Die maximale Temperatur gab es am 14.04.2007 mit 22.3°C.
Die minimale Temperatur gab es am 14.04.2020 mit 0.2°C.

Tabellarische Darstellung aller Werte:

  T_Luft T_Wasser Wind Luftdruck
  ∅  in °C min in °C max in °C ∅  in °C ∅  in km/h ∅  in hPa
 
heute: (14.04.2026) 11,4 9,1 13,6 9,8 11,6 1.010,3
 
14.04.2026 11,4 9,1 13,6 9,8 11,6 1.010,3
14.04.2025 15,6 9,3 21,4 12,6 8,7 1.002,6
14.04.2024 13,6 7,9 17,7 14,2 15,0 1.009,6
14.04.2023 7,3 5,8 8,0 9,7 7,5 1.001,3
14.04.2022 12,3 8,0 16,2 9,5 6,5 1.012,8
14.04.2021 4,8 0,4 8,3 7,8 7,4 1.020,6
14.04.2020 6,5 0,2 10,5 11,0 15,1 1.014,8
14.04.2019 6,2 3,2 10,1 8,5 11,2 1.019,5
14.04.2018 12,7 8,4 17,4 10,7 10,7 1.010,4
14.04.2017 9,1 4,1 13,5 10,4 13,5 1.006,8
14.04.2016 7,9 3,8 11,5 10,7 4,8 1.004,1
14.04.2015 10,8 2,0 14,9 9,7 10,9 1.016,5
14.04.2014 6,6 4,4 10,3 11,2 18,5 1.002,2
14.04.2013 12,4 2,4 17,0 7,5 12,9 1.019,3
14.04.2012 8,5 0,5 13,4 10,8 6,6 1.000,3
14.04.2011 6,1 4,9 9,8 9,8 6,7 1.019,2
14.04.2010 7,0 4,2 9,5 --- 14,1 1.018,9
14.04.2009 14,1 7,0 20,8 14,3 9,6 1.013,3
14.04.2008 9,0 5,3 13,3 9,4 6,1 1.014,9
14.04.2007 14,1 8,8 22,3 12,2 8,0 1.030,9
 
∅ alle Jahre: 9,8 5,0 14,0 10,0 10,3 1.012,4

 
 

 

 

Wir nutzen Cookies auf unserer Website. Einige von ihnen sind essenziell für den Betrieb der Seite, während andere uns helfen, diese Website und die Nutzererfahrung zu verbessern (Tracking Cookies). Sie können selbst entscheiden, ob Sie die Cookies zulassen möchten. Bitte beachten Sie, dass bei einer Ablehnung womöglich nicht mehr alle Funktionalitäten der Seite zur Verfügung stehen.